Cenk Car — 9HVM6 — position and weather

sailwx.info

Track history (hours):
 
Tides and Currents Weather Stations Pressure Air Temp Water Temp Dewpoint Dewpoint Depression Visibility Wind Speed Wind Dir Waves Ship Positions

Cenk Car

Last reported at 2018-Jul-19 02:48 UTC. Time now 2018-Jul-20 22:00 UTC.
Position N 43°37' E 028°51'.

Length 111 m; draft 5.6 m.

Type: Cargo ship. MMSI: 248901000.

Date/timePositionNaut miles runAvg speedWind from/ knotsBaromVisibWave heightAir tempDewpointWater temp
2018-Jul-19 02:48N 43°37' E 028°51'3 9.7
2018-Jul-19 02:30N 43°39' E 028°51'5 9.5
2018-Jul-19 02:00N 43°44' E 028°50'5 9.4
2018-Jul-19 01:30N 43°49' E 028°49'5 9.3
2018-Jul-19 01:00N 43°53' E 028°48'2 3.9
2018-Jul-19 00:29N 43°55' E 028°48'2 5.0
2018-Jul-19 00:00N 43°58' E 028°49'4 8.8
2018-Jul-18 23:30N 44°02' E 028°46'4 7.8
2018-Jul-18 23:00N 44°05' E 028°43'3 5.3
2018-Jul-18 22:31N 44°07' E 028°40'0 0.9
2018-Jul-18 22:00N 44°06' E 028°40'0 0.0
2018-Jul-18 21:30N 44°06' E 028°40'0 0.0
2018-Jul-18 21:00N 44°06' E 028°40'0 0.0
2018-Jul-18 20:30N 44°06' E 028°40'0 0.0
2018-Jul-18 20:00N 44°06' E 028°40'0 0.0
2018-Jul-18 19:29N 44°06' E 028°40'0 0.0
2018-Jul-18 19:00N 44°06' E 028°40'0 0.0
2018-Jul-18 18:30N 44°06' E 028°40'0 0.0
2018-Jul-18 18:00N 44°06' E 028°40'0 0.0
2018-Jul-18 17:30N 44°06' E 028°40'0 0.0
2018-Jul-18 17:00N 44°06' E 028°40'0 0.0
2018-Jul-18 16:30N 44°06' E 028°40'0 0.0
2018-Jul-18 16:00N 44°06' E 028°40'0 0.0
2018-Jul-18 15:30N 44°06' E 028°40'0 0.0
2018-Jul-18 15:00N 44°06' E 028°40'0 0.0
2018-Jul-18 14:30N 44°06' E 028°40'0 0.0
2018-Jul-18 13:30N 44°06' E 028°40'0 0.0
2018-Jul-18 13:00N 44°06' E 028°40'0 0.0
2018-Jul-18 12:30N 44°06' E 028°40'0 0.0
2018-Jul-18 12:00N 44°06' E 028°40'0 0.0
2018-Jul-18 11:30N 44°06' E 028°40'0 0.0
2018-Jul-18 10:30N 44°06' E 028°40'0 0.0
2018-Jul-18 10:00N 44°06' E 028°40'2 3.2
2018-Jul-18 09:31N 44°06' E 028°42'3 6.3
2018-Jul-18 09:00N 44°04' E 028°45'4 8.0
2018-Jul-18 08:30N 44°05' E 028°50'5 9.9
2018-Jul-18 08:00N 44°07' E 028°56'510.0
2018-Jul-18 07:30N 44°10' E 029°02'510.3
2018-Jul-18 07:00N 44°12' E 029°08'510.4
2018-Jul-18 06:30N 44°15' E 029°15'712.2
2018-Jul-18 05:58N 44°18' E 029°23'4 8.1
2018-Jul-18 05:30N 44°20' E 029°27'510.2
2018-Jul-18 05:00N 44°23' E 029°33'510.2
2018-Jul-18 04:30N 44°25' E 029°40'510.0
2018-Jul-18 04:00N 44°29' E 029°45'510.1
2018-Jul-18 03:30N 44°33' E 029°49'510.1
2018-Jul-18 03:00N 44°37' E 029°53'5 9.9
2018-Jul-18 02:30N 44°41' E 029°56'510.2
2018-Jul-18 02:00N 44°46' E 029°58'510.2
2018-Jul-18 01:30N 44°51' E 029°59'510.1
2018-Jul-18 01:00N 44°56' E 030°01'5 9.8
2018-Jul-18 00:30N 45°01' E 030°02'510.0
2018-Jul-18 00:00N 45°06' E 030°04'10 9.9
2018-Jul-17 22:57N 45°16' E 030°08'4 9.8
2018-Jul-17 22:30N 45°20' E 030°11'6 9.6
2018-Jul-17 21:53N 45°25' E 030°15'50 8.8
2018-Jul-17 16:09N 46°10' E 030°46'1 9.5
2018-Jul-17 16:00N 46°12' E 030°46'5 9.5
2018-Jul-17 15:30N 46°16' E 030°46'4 8.2
2018-Jul-17 15:00N 46°19' E 030°41'2 4.3
2018-Jul-17 14:29N 46°21' E 030°39'0 0.0
2018-Jul-17 13:59N 46°21' E 030°39'0 0.0
2018-Jul-17 05:06N 46°21' E 030°39'0 0.0
2018-Jul-17 05:00N 46°21' E 030°39'0 0.0
2018-Jul-17 04:27N 46°21' E 030°39'2 4.5
2018-Jul-17 04:00N 46°19' E 030°41'3 6.5
2018-Jul-17 03:30N 46°17' E 030°45'5 9.3
2018-Jul-17 03:00N 46°13' E 030°46'146 7.2
2018-Jul-16 06:34N 43°54' E 029°41'4 8.9
2018-Jul-16 06:09N 43°50' E 029°40'1 8.9
2018-Jul-16 06:00N 43°49' E 029°39'5 8.8
2018-Jul-16 05:29N 43°44' E 029°38'  
2018-Jul-12 10:50N 42°55' E 028°55'410.2
2018-Jul-12 10:30N 42°58' E 028°55'510.3
2018-Jul-12 10:00N 43°04' E 028°55'510.3
2018-Jul-12 09:30N 43°09' E 028°54'22 9.8
2018-Jul-12 07:14N 43°31' E 028°52'3 9.6
2018-Jul-12 06:54N 43°34' E 028°51'4 9.6
2018-Jul-12 06:30N 43°38' E 028°50'5 9.8
2018-Jul-12 06:00N 43°43' E 028°50'510.1
2018-Jul-12 05:30N 43°48' E 028°49'510.0
2018-Jul-12 05:00N 43°53' E 028°49'5 9.9
2018-Jul-12 04:30N 43°57' E 028°48'5 9.6
2018-Jul-12 04:00N 44°02' E 028°45'5 9.5
2018-Jul-12 03:30N 44°06' E 028°42'2 3.7
2018-Jul-12 03:00N 44°06' E 028°40'0 0.0
2018-Jul-12 02:30N 44°06' E 028°40'0 0.0
2018-Jul-12 02:00N 44°06' E 028°40'0 0.0
2018-Jul-12 01:30N 44°06' E 028°40'0 0.0
2018-Jul-12 01:00N 44°06' E 028°40'0 0.0
2018-Jul-12 00:30N 44°06' E 028°40'0 0.0
2018-Jul-12 00:00N 44°06' E 028°40'0 0.0
2018-Jul-11 23:30N 44°06' E 028°40'0 0.0
2018-Jul-11 23:00N 44°06' E 028°40'0 0.0
2018-Jul-11 22:30N 44°06' E 028°40'0 0.0
2018-Jul-11 21:57N 44°06' E 028°40'0 0.0
2018-Jul-11 21:30N 44°06' E 028°40'0 0.0
2018-Jul-11 21:00N 44°06' E 028°40'0 0.0
2018-Jul-11 20:30N 44°06' E 028°40'0 0.0
2018-Jul-11 20:00N 44°06' E 028°40'0 0.0
2018-Jul-11 19:30N 44°06' E 028°40'0 0.0
2018-Jul-11 19:00N 44°06' E 028°40'0 0.0
2018-Jul-11 18:30N 44°06' E 028°40'0 0.0
2018-Jul-11 18:00N 44°06' E 028°40'0 0.0
2018-Jul-11 17:30N 44°06' E 028°40'1 1.1
2018-Jul-11 17:00N 44°06' E 028°40'2 4.2
2018-Jul-11 16:30N 44°05' E 028°43'4 8.8
2018-Jul-11 16:00N 44°02' E 028°47'510.2
2018-Jul-11 15:30N 43°59' E 028°52'510.3
2018-Jul-11 15:00N 43°56' E 028°58'510.3
2018-Jul-11 14:30N 43°54' E 029°05'510.0
2018-Jul-11 14:00N 43°51' E 029°11'5 9.8
2018-Jul-11 13:30N 43°49' E 029°16'254 9.7
2018-Jul-10 11:16N 42°07' E 034°35'310.1
2018-Jul-10 11:00N 42°07' E 034°38'5 9.9
2018-Jul-10 10:30N 42°09' E 034°45'14610.2
2018-Jul-09 20:08N 42°11' E 038°02'16 9.9
2018-Jul-09 18:31N 42°11' E 038°24'0 9.9
2018-Jul-09 18:30N 42°11' E 038°24'12 9.8
2018-Jul-09 17:18N 42°11' E 038°40'4 9.7
2018-Jul-09 16:54N 42°11' E 038°45'18 9.7
2018-Jul-09 15:02N 42°12' E 039°10'0 9.8
2018-Jul-09 15:00N 42°12' E 039°10'  
Track history (hours):
 
Tides and Currents Weather Stations Pressure Air Temp Water Temp Dewpoint Dewpoint Depression Visibility Wind Speed Wind Dir Waves Ship Positions

Cenk Car

Last reported at 2018-Jul-19 02:48 UTC. Time now 2018-Jul-20 22:00 UTC.
Position N 43°37' E 028°51'.

Length 111 m; draft 5.6 m.

Type: Cargo ship. MMSI: 248901000.

Date/timePositionNaut miles runAvg speedWind from/ knotsBaromVisibWave heightAir tempDewpointWater temp
2018-Jul-19 02:48N 43°37' E 028°51'3 9.7
2018-Jul-19 02:30N 43°39' E 028°51'5 9.5
2018-Jul-19 02:00N 43°44' E 028°50'5 9.4
2018-Jul-19 01:30N 43°49' E 028°49'5 9.3
2018-Jul-19 01:00N 43°53' E 028°48'2 3.9
2018-Jul-19 00:29N 43°55' E 028°48'2 5.0
2018-Jul-19 00:00N 43°58' E 028°49'4 8.8
2018-Jul-18 23:30N 44°02' E 028°46'4 7.8
2018-Jul-18 23:00N 44°05' E 028°43'3 5.3
2018-Jul-18 22:31N 44°07' E 028°40'0 0.9
2018-Jul-18 22:00N 44°06' E 028°40'0 0.0
2018-Jul-18 21:30N 44°06' E 028°40'0 0.0
2018-Jul-18 21:00N 44°06' E 028°40'0 0.0
2018-Jul-18 20:30N 44°06' E 028°40'0 0.0
2018-Jul-18 20:00N 44°06' E 028°40'0 0.0
2018-Jul-18 19:29N 44°06' E 028°40'0 0.0
2018-Jul-18 19:00N 44°06' E 028°40'0 0.0
2018-Jul-18 18:30N 44°06' E 028°40'0 0.0
2018-Jul-18 18:00N 44°06' E 028°40'0 0.0
2018-Jul-18 17:30N 44°06' E 028°40'0 0.0
2018-Jul-18 17:00N 44°06' E 028°40'0 0.0
2018-Jul-18 16:30N 44°06' E 028°40'0 0.0
2018-Jul-18 16:00N 44°06' E 028°40'0 0.0
2018-Jul-18 15:30N 44°06' E 028°40'0 0.0
2018-Jul-18 15:00N 44°06' E 028°40'0 0.0
2018-Jul-18 14:30N 44°06' E 028°40'0 0.0
2018-Jul-18 13:30N 44°06' E 028°40'0 0.0
2018-Jul-18 13:00N 44°06' E 028°40'0 0.0
2018-Jul-18 12:30N 44°06' E 028°40'0 0.0
2018-Jul-18 12:00N 44°06' E 028°40'0 0.0
2018-Jul-18 11:30N 44°06' E 028°40'0 0.0
2018-Jul-18 10:30N 44°06' E 028°40'0 0.0
2018-Jul-18 10:00N 44°06' E 028°40'2 3.2
2018-Jul-18 09:31N 44°06' E 028°42'3 6.3
2018-Jul-18 09:00N 44°04' E 028°45'4 8.0
2018-Jul-18 08:30N 44°05' E 028°50'5 9.9
2018-Jul-18 08:00N 44°07' E 028°56'510.0
2018-Jul-18 07:30N 44°10' E 029°02'510.3
2018-Jul-18 07:00N 44°12' E 029°08'510.4
2018-Jul-18 06:30N 44°15' E 029°15'712.2
2018-Jul-18 05:58N 44°18' E 029°23'4 8.1
2018-Jul-18 05:30N 44°20' E 029°27'510.2
2018-Jul-18 05:00N 44°23' E 029°33'510.2
2018-Jul-18 04:30N 44°25' E 029°40'510.0
2018-Jul-18 04:00N 44°29' E 029°45'510.1
2018-Jul-18 03:30N 44°33' E 029°49'510.1
2018-Jul-18 03:00N 44°37' E 029°53'5 9.9
2018-Jul-18 02:30N 44°41' E 029°56'510.2
2018-Jul-18 02:00N 44°46' E 029°58'510.2
2018-Jul-18 01:30N 44°51' E 029°59'510.1
2018-Jul-18 01:00N 44°56' E 030°01'5 9.8
2018-Jul-18 00:30N 45°01' E 030°02'510.0
2018-Jul-18 00:00N 45°06' E 030°04'10 9.9
2018-Jul-17 22:57N 45°16' E 030°08'4 9.8
2018-Jul-17 22:30N 45°20' E 030°11'6 9.6
2018-Jul-17 21:53N 45°25' E 030°15'50 8.8
2018-Jul-17 16:09N 46°10' E 030°46'1 9.5
2018-Jul-17 16:00N 46°12' E 030°46'5 9.5
2018-Jul-17 15:30N 46°16' E 030°46'4 8.2
2018-Jul-17 15:00N 46°19' E 030°41'2 4.3
2018-Jul-17 14:29N 46°21' E 030°39'0 0.0
2018-Jul-17 13:59N 46°21' E 030°39'0 0.0
2018-Jul-17 05:06N 46°21' E 030°39'0 0.0
2018-Jul-17 05:00N 46°21' E 030°39'0 0.0
2018-Jul-17 04:27N 46°21' E 030°39'2 4.5
2018-Jul-17 04:00N 46°19' E 030°41'3 6.5
2018-Jul-17 03:30N 46°17' E 030°45'5 9.3
2018-Jul-17 03:00N 46°13' E 030°46'146 7.2
2018-Jul-16 06:34N 43°54' E 029°41'4 8.9
2018-Jul-16 06:09N 43°50' E 029°40'1 8.9
2018-Jul-16 06:00N 43°49' E 029°39'5 8.8
2018-Jul-16 05:29N 43°44' E 029°38'  
2018-Jul-12 10:50N 42°55' E 028°55'410.2
2018-Jul-12 10:30N 42°58' E 028°55'510.3
2018-Jul-12 10:00N 43°04' E 028°55'510.3
2018-Jul-12 09:30N 43°09' E 028°54'22 9.8
2018-Jul-12 07:14N 43°31' E 028°52'3 9.6
2018-Jul-12 06:54N 43°34' E 028°51'4 9.6
2018-Jul-12 06:30N 43°38' E 028°50'5 9.8
2018-Jul-12 06:00N 43°43' E 028°50'510.1
2018-Jul-12 05:30N 43°48' E 028°49'510.0
2018-Jul-12 05:00N 43°53' E 028°49'5 9.9
2018-Jul-12 04:30N 43°57' E 028°48'5 9.6
2018-Jul-12 04:00N 44°02' E 028°45'5 9.5
2018-Jul-12 03:30N 44°06' E 028°42'2 3.7
2018-Jul-12 03:00N 44°06' E 028°40'0 0.0
2018-Jul-12 02:30N 44°06' E 028°40'0 0.0
2018-Jul-12 02:00N 44°06' E 028°40'0 0.0
2018-Jul-12 01:30N 44°06' E 028°40'0 0.0
2018-Jul-12 01:00N 44°06' E 028°40'0 0.0
2018-Jul-12 00:30N 44°06' E 028°40'0 0.0
2018-Jul-12 00:00N 44°06' E 028°40'0 0.0
2018-Jul-11 23:30N 44°06' E 028°40'0 0.0
2018-Jul-11 23:00N 44°06' E 028°40'0 0.0
2018-Jul-11 22:30N 44°06' E 028°40'0 0.0
2018-Jul-11 21:57N 44°06' E 028°40'0 0.0
2018-Jul-11 21:30N 44°06' E 028°40'0 0.0
2018-Jul-11 21:00N 44°06' E 028°40'0 0.0
2018-Jul-11 20:30N 44°06' E 028°40'0 0.0
2018-Jul-11 20:00N 44°06' E 028°40'0 0.0
2018-Jul-11 19:30N 44°06' E 028°40'0 0.0
2018-Jul-11 19:00N 44°06' E 028°40'0 0.0
2018-Jul-11 18:30N 44°06' E 028°40'0 0.0
2018-Jul-11 18:00N 44°06' E 028°40'0 0.0
2018-Jul-11 17:30N 44°06' E 028°40'1 1.1
2018-Jul-11 17:00N 44°06' E 028°40'2 4.2
2018-Jul-11 16:30N 44°05' E 028°43'4 8.8
2018-Jul-11 16:00N 44°02' E 028°47'510.2
2018-Jul-11 15:30N 43°59' E 028°52'510.3
2018-Jul-11 15:00N 43°56' E 028°58'510.3
2018-Jul-11 14:30N 43°54' E 029°05'510.0
2018-Jul-11 14:00N 43°51' E 029°11'5 9.8
2018-Jul-11 13:30N 43°49' E 029°16'254 9.7
2018-Jul-10 11:16N 42°07' E 034°35'310.1
2018-Jul-10 11:00N 42°07' E 034°38'5 9.9
2018-Jul-10 10:30N 42°09' E 034°45'14610.2
2018-Jul-09 20:08N 42°11' E 038°02'16 9.9
2018-Jul-09 18:31N 42°11' E 038°24'0 9.9
2018-Jul-09 18:30N 42°11' E 038°24'12 9.8
2018-Jul-09 17:18N 42°11' E 038°40'4 9.7
2018-Jul-09 16:54N 42°11' E 038°45'18 9.7
2018-Jul-09 15:02N 42°12' E 039°10'0 9.8
2018-Jul-09 15:00N 42°12' E 039°10'  

Dump ship's entire track history